Airfield :
LOGIN :

Register | Disclaimer

   EN    FR    IT 

 










Legend :    VFR   Marginal VFR   IFR   Intensive IFR   Very Intensive IFR
Visi :
Ceiling :
>= 8 km
>= 3000ft
5 to 8 km
1000 to 3000 ft
1500m to 5 km
500 to 1000 ft
800 to 1500m
200 to 500 ft
< 800m
< 200 ft
Symbols :   Thunderstorms  Fog  Heavy snow  Heavy precipitations  Wind > 20 kt
SIGMETs :     Misc.  Thunderstorms  Icing  Turbulence  Mountain Waves  Volcanic Ashes






- Airport Elevation : 27 ft
- IATA code : PMI


LEPA - Palma de Mallorca

CURRENT METAR :
  • 150400Z 08004KT 9999 FEW023 SCT067 12/10 Q1017 NOSIG

EXPIRED METARs :
  • 150330Z 05004KT 9999 FEW023 SCT067 12/10 Q1017 NOSIG
  • 150300Z 00000KT 9999 FEW023 SCT067 12/10 Q1017 NOSIG
  • 150230Z 07003KT 9999 FEW023 SCT067 12/10 Q1018 NOSIG
  • 150200Z 36003KT 9999 FEW023 SCT067 12/10 Q1018 NOSIG
  • 150130Z 08004KT 9999 FEW023 12/10 Q1018 NOSIG

TAF TAF LEPA
Valid from the 15 at 00:00 until the 16 at 00:00 UTC


142300Z 1500/1524 04005KT 9999 FEW020 TX17/1512Z TN09/1506Z
BECMG 1506/1508 06014KT
TEMPO 1508/1517 06015G26KT
BECMG 1519/1521 04004KT



MET'MAP, your aeronautical weather chart ! - Copyright ORBIFLY December 2007 - Disclaimer

ORBIFLY MET'MAP TEAM :

Programming & Development : Alexandra Zaïnal
Concept & original design : Baudouin d'Aumeries
Assistance for programming : Marc-Olivier Méhu
Technical & hardware support : Manuel Goepfert

Contact : metmap@orbifly.com




SOURCES & CREDITS :

   NOAA